createdAt,value
2023-01-15T00:01:05.606Z,5.95
2023-01-15T00:03:32.918Z,5.66
2023-01-15T00:06:03.502Z,6.06
2023-01-15T00:08:32.273Z,5.49
2023-01-15T00:10:59.177Z,5.83
2023-01-15T00:13:25.911Z,5.75
2023-01-15T00:15:52.734Z,5.57
2023-01-15T00:18:19.653Z,6.10
2023-01-15T00:20:46.545Z,6.14
2023-01-15T00:23:33.226Z,5.86
2023-01-15T00:26:18.859Z,5.95
2023-01-15T00:28:49.113Z,5.21
2023-01-15T00:31:15.836Z,5.42
2023-01-15T00:33:42.644Z,5.33
2023-01-15T00:36:10.278Z,5.42
2023-01-15T00:38:37.408Z,4.94
2023-01-15T00:41:04.564Z,6.08
2023-01-15T00:43:31.514Z,5.39
2023-01-15T00:45:58.275Z,5.56
2023-01-15T00:48:25.256Z,5.27
2023-01-15T00:50:51.997Z,5.40
2023-01-15T00:53:18.809Z,4.69
2023-01-15T00:55:45.734Z,4.76
2023-01-15T00:58:12.423Z,4.77
2023-01-15T01:00:39.427Z,4.02
2023-01-15T01:03:07.134Z,4.03
2023-01-15T01:05:33.982Z,3.84
2023-01-15T01:08:00.856Z,4.31
2023-01-15T01:10:47.552Z,4.54
2023-01-15T01:13:15.487Z,4.55
2023-01-15T01:15:42.300Z,4.49
2023-01-15T01:18:29.328Z,4.68
2023-01-15T01:21:16.321Z,4.47
2023-01-15T01:23:55.213Z,4.49
2023-01-15T01:26:21.974Z,4.85
2023-01-15T01:28:54.458Z,5.02
2023-01-15T01:31:22.273Z,4.88
2023-01-15T01:33:53.335Z,4.34
2023-01-15T01:36:21.295Z,4.28
2023-01-15T01:38:51.794Z,4.30
2023-01-15T01:41:19.331Z,4.42
2023-01-15T01:44:03.237Z,4.31
2023-01-15T01:46:31.423Z,4.35
2023-01-15T01:49:00.753Z,4.76
2023-01-15T01:51:29.265Z,4.52
2023-01-15T01:53:57.226Z,4.58
2023-01-15T01:56:24.694Z,5.01
2023-01-15T01:58:53.491Z,5.00
2023-01-15T02:01:21.988Z,5.13
2023-01-15T02:03:48.995Z,5.19
2023-01-15T02:06:16.264Z,5.69
2023-01-15T02:08:43.002Z,5.72
2023-01-15T02:11:13.781Z,5.36
2023-01-15T02:13:41.793Z,5.70
2023-01-15T02:16:31.054Z,5.46
2023-01-15T02:19:17.063Z,5.59
2023-01-15T02:21:43.816Z,5.95
2023-01-15T02:24:17.950Z,5.64
2023-01-15T02:26:44.659Z,5.65
2023-01-15T02:29:15.666Z,5.96
2023-01-15T02:31:43.702Z,6.01
2023-01-15T02:34:21.307Z,5.67
2023-01-15T02:36:50.691Z,5.77
2023-01-15T02:39:18.436Z,5.65
2023-01-15T02:41:47.978Z,5.58
2023-01-15T02:44:17.296Z,5.73
2023-01-15T02:46:44.372Z,5.33
2023-01-15T02:49:13.921Z,5.23
2023-01-15T02:51:45.001Z,5.52
2023-01-15T02:54:13.671Z,5.50
2023-01-15T02:56:42.325Z,5.30
2023-01-15T02:59:11.763Z,5.51
2023-01-15T03:01:45.714Z,5.41
2023-01-15T03:04:18.745Z,5.32
2023-01-15T03:07:01.202Z,5.22
2023-01-15T03:09:28.862Z,5.41
2023-01-15T03:12:03.372Z,6.17
2023-01-15T03:14:42.391Z,5.75
2023-01-15T03:17:35.155Z,6.03
2023-01-15T03:20:22.051Z,6.16
2023-01-15T03:22:51.952Z,6.05
2023-01-15T03:25:21.884Z,5.76
2023-01-15T03:27:48.619Z,6.01
2023-01-15T03:30:17.744Z,6.07
2023-01-15T03:32:44.612Z,6.33
2023-01-15T03:35:31.183Z,6.64
2023-01-15T03:37:57.880Z,6.79
2023-01-15T03:40:25.352Z,6.68
2023-01-15T03:43:17.412Z,6.63
2023-01-15T03:45:46.612Z,6.77
2023-01-15T03:48:13.282Z,6.66
2023-01-15T03:50:49.974Z,6.45
2023-01-15T03:53:16.642Z,6.46
2023-01-15T03:55:46.275Z,6.19
2023-01-15T03:58:21.696Z,6.29
2023-01-15T04:00:48.475Z,6.42
2023-01-15T04:03:16.374Z,6.48
2023-01-15T04:05:44.191Z,6.21
2023-01-15T04:08:12.954Z,6.33
2023-01-15T04:10:50.575Z,6.57
2023-01-15T04:13:17.202Z,6.22
2023-01-15T04:15:44.171Z,6.69
2023-01-15T04:18:11.895Z,6.77
2023-01-15T04:20:44.332Z,6.59
2023-01-15T04:23:12.015Z,6.37
2023-01-15T04:25:39.642Z,6.07
2023-01-15T04:28:06.757Z,6.21
2023-01-15T04:30:34.052Z,6.31
2023-01-15T04:33:00.863Z,6.33
2023-01-15T04:35:27.581Z,5.90
2023-01-15T04:37:57.721Z,5.80
2023-01-15T04:40:43.383Z,5.78
2023-01-15T04:43:32.272Z,6.07
2023-01-15T04:45:59.371Z,5.80
2023-01-15T04:48:26.775Z,6.16
2023-01-15T04:50:54.094Z,5.88
2023-01-15T04:53:21.023Z,5.71
2023-01-15T04:55:47.923Z,6.36
2023-01-15T04:58:15.997Z,6.04
2023-01-15T05:00:43.277Z,6.26
2023-01-15T05:03:10.147Z,6.37
2023-01-15T05:05:38.991Z,6.12
2023-01-15T05:08:05.823Z,6.48
2023-01-15T05:10:50.613Z,6.47
2023-01-15T05:13:17.434Z,6.22
2023-01-15T05:15:47.142Z,6.31
2023-01-15T05:18:15.295Z,6.27
2023-01-15T05:20:42.415Z,6.25
2023-01-15T05:23:09.084Z,6.27
2023-01-15T05:25:39.330Z,5.87
2023-01-15T05:28:06.233Z,6.01
2023-01-15T05:30:34.034Z,6.11
2023-01-15T05:33:00.695Z,6.34
2023-01-15T05:35:27.527Z,6.44
2023-01-15T05:37:54.261Z,6.46
2023-01-15T05:40:21.074Z,6.24
2023-01-15T05:42:47.784Z,6.54
2023-01-15T05:45:14.463Z,6.50
2023-01-15T05:47:41.149Z,6.57
2023-01-15T05:50:08.637Z,6.33
2023-01-15T05:52:35.356Z,6.55
2023-01-15T05:55:02.037Z,6.07
2023-01-15T05:57:28.697Z,6.06
2023-01-15T05:59:56.732Z,6.23
2023-01-15T06:02:23.578Z,6.38
2023-01-15T06:04:50.852Z,6.37
2023-01-15T06:07:20.527Z,6.41
2023-01-15T06:09:52.624Z,6.25
2023-01-15T06:12:19.326Z,5.79
2023-01-15T06:14:46.523Z,5.63
2023-01-15T06:17:15.214Z,5.92
2023-01-15T06:19:41.905Z,6.00
2023-01-15T06:22:10.884Z,5.80
2023-01-15T06:24:38.081Z,6.01
2023-01-15T06:27:05.078Z,6.16
2023-01-15T06:29:32.405Z,6.21
2023-01-15T06:31:59.825Z,6.26
2023-01-15T06:34:27.169Z,6.13
2023-01-15T06:36:54.084Z,6.22
2023-01-15T06:39:20.756Z,6.08
2023-01-15T06:42:08.536Z,6.15
2023-01-15T06:44:53.935Z,6.34
2023-01-15T06:47:21.607Z,6.46
2023-01-15T06:49:49.472Z,6.48
2023-01-15T06:52:16.255Z,6.32
2023-01-15T06:54:43.706Z,6.35
2023-01-15T06:57:10.445Z,6.76
2023-01-15T06:59:38.118Z,6.91
2023-01-15T07:02:04.895Z,6.76
2023-01-15T07:04:32.283Z,6.90
2023-01-15T07:06:58.985Z,7.20
2023-01-15T07:09:25.735Z,7.26
2023-01-15T07:11:52.434Z,7.73
2023-01-15T07:14:23.726Z,8.60
2023-01-15T07:16:50.860Z,8.03
2023-01-15T07:19:17.746Z,8.75
2023-01-15T07:21:44.607Z,8.50
2023-01-15T07:24:11.878Z,8.73
2023-01-15T07:26:38.615Z,8.59
2023-01-15T07:29:05.984Z,8.89
2023-01-15T07:31:35.434Z,8.97
2023-01-15T07:34:02.349Z,8.58
2023-01-15T07:36:29.223Z,8.05
2023-01-15T07:38:55.977Z,7.90
2023-01-15T07:41:41.550Z,7.65
2023-01-15T07:44:29.106Z,7.92
2023-01-15T07:47:14.699Z,7.88
2023-01-15T07:49:45.855Z,7.85
2023-01-15T07:52:16.004Z,7.71
2023-01-15T07:54:43.803Z,8.02
2023-01-15T07:57:23.036Z,7.69
2023-01-15T07:59:50.390Z,8.05
2023-01-15T08:02:18.237Z,7.62
2023-01-15T08:04:45.954Z,7.70
2023-01-15T08:07:13.496Z,7.96
2023-01-15T08:09:40.394Z,7.77
2023-01-15T08:12:26.236Z,8.17
2023-01-15T08:15:11.404Z,7.92
2023-01-15T08:17:39.328Z,8.02
2023-01-15T08:20:07.406Z,8.30
2023-01-15T08:22:34.365Z,8.26
2023-01-15T08:25:01.533Z,8.55
2023-01-15T08:27:29.199Z,8.49
2023-01-15T08:29:56.953Z,8.11
2023-01-15T08:32:24.912Z,8.55
2023-01-15T08:34:51.739Z,8.87
2023-01-15T08:37:18.912Z,8.69
2023-01-15T08:39:46.498Z,8.93
2023-01-15T08:42:13.675Z,8.64
2023-01-15T08:44:40.416Z,9.16
2023-01-15T08:47:07.227Z,9.35
2023-01-15T08:49:34.012Z,9.16
2023-01-15T08:52:03.504Z,9.64
2023-01-15T08:54:36.367Z,9.46
2023-01-15T08:57:03.111Z,9.28
2023-01-15T08:59:29.966Z,9.27
2023-01-15T09:01:56.851Z,9.21
2023-01-15T09:04:23.756Z,9.31
2023-01-15T09:06:50.599Z,9.39
2023-01-15T09:09:19.032Z,9.64
2023-01-15T09:11:46.163Z,9.71
2023-01-15T09:14:58.885Z,10.08
2023-01-15T09:17:09.188Z,10.45
2023-01-15T09:19:36.007Z,9.97
2023-01-15T09:22:02.846Z,10.20
2023-01-15T09:24:29.769Z,10.08
2023-01-15T09:27:16.416Z,10.40
2023-01-15T09:29:43.098Z,10.16
2023-01-15T09:32:10.754Z,10.56
2023-01-15T09:34:37.600Z,10.34
2023-01-15T09:37:04.369Z,10.65
2023-01-15T09:39:31.476Z,10.81
2023-01-15T09:42:05.623Z,10.96
2023-01-15T09:45:01.944Z,11.09
2023-01-15T09:47:35.947Z,10.73
2023-01-15T09:50:21.484Z,10.85
2023-01-15T09:52:50.992Z,11.34
2023-01-15T09:55:20.476Z,11.92
2023-01-15T09:57:50.155Z,12.03
2023-01-15T10:00:21.230Z,12.21
2023-01-15T10:02:54.651Z,12.24
2023-01-15T10:05:21.491Z,12.14
2023-01-15T10:07:54.250Z,12.46
2023-01-15T10:10:23.429Z,12.64
2023-01-15T10:12:53.699Z,12.74
2023-01-15T10:15:25.555Z,13.08
2023-01-15T10:17:59.426Z,13.37
2023-01-15T10:20:39.510Z,13.61
2023-01-15T10:23:13.867Z,13.94
2023-01-15T10:25:48.551Z,13.91
2023-01-15T10:28:27.200Z,14.15
2023-01-15T10:30:55.159Z,14.18
2023-01-15T10:33:45.229Z,14.24
2023-01-15T10:36:16.159Z,14.49
2023-01-15T10:38:54.283Z,13.88
2023-01-15T10:41:50.285Z,14.01
2023-01-15T10:44:21.226Z,14.14
2023-01-15T10:46:54.480Z,14.02
2023-01-15T10:49:21.657Z,14.05
2023-01-15T10:51:56.936Z,13.96
2023-01-15T10:54:32.401Z,13.97
2023-01-15T10:57:12.532Z,14.16
2023-01-15T10:59:51.003Z,14.09
2023-01-15T11:02:23.976Z,13.93
2023-01-15T11:04:50.974Z,14.25
2023-01-15T11:07:18.388Z,13.90
2023-01-15T11:09:45.628Z,14.32
2023-01-15T11:12:19.666Z,13.57
2023-01-15T11:15:05.190Z,14.18
2023-01-15T11:18:04.233Z,14.29
2023-01-15T11:20:34.857Z,14.26
2023-01-15T11:23:18.870Z,13.89
2023-01-15T11:25:50.483Z,14.05
2023-01-15T11:28:18.547Z,14.02
2023-01-15T11:30:53.822Z,14.00
2023-01-15T11:33:24.695Z,13.58
2023-01-15T11:35:58.292Z,13.90
2023-01-15T11:38:26.332Z,13.85
2023-01-15T11:40:55.075Z,13.86
2023-01-15T11:43:41.403Z,13.52
2023-01-15T11:46:46.800Z,13.74
2023-01-15T11:49:36.264Z,13.23
2023-01-15T11:52:05.403Z,13.51
2023-01-15T11:54:36.441Z,13.73
2023-01-15T11:57:03.904Z,13.18
2023-01-15T11:59:30.763Z,13.34
2023-01-15T12:02:00.361Z,13.16
2023-01-15T12:04:33.301Z,13.19
2023-01-15T12:07:01.263Z,13.63
2023-01-15T12:09:28.144Z,13.61
2023-01-15T12:12:00.835Z,13.59
2023-01-15T12:14:30.696Z,13.38
2023-01-15T12:17:00.372Z,13.27
2023-01-15T12:19:37.688Z,13.58
2023-01-15T12:22:09.515Z,13.07
2023-01-15T12:24:55.183Z,13.28
2023-01-15T12:27:22.064Z,13.14
2023-01-15T12:29:53.554Z,12.80
2023-01-15T12:32:23.603Z,12.96
2023-01-15T12:34:53.432Z,12.84
2023-01-15T12:37:22.681Z,13.08
2023-01-15T12:40:07.912Z,12.92
2023-01-15T12:42:54.959Z,12.58
2023-01-15T12:45:33.948Z,12.75
2023-01-15T12:48:10.297Z,12.16
2023-01-15T12:50:51.733Z,12.79
2023-01-15T12:53:21.736Z,12.63
2023-01-15T12:55:58.140Z,12.54
2023-01-15T12:58:39.377Z,12.81
2023-01-15T13:01:24.585Z,12.73
2023-01-15T13:04:09.929Z,12.94
2023-01-15T13:06:38.948Z,12.99
2023-01-15T13:09:13.515Z,12.90
2023-01-15T13:11:40.370Z,13.01
2023-01-15T13:14:25.258Z,13.00
2023-01-15T13:17:21.292Z,12.93
2023-01-15T13:20:23.720Z,12.45
2023-01-15T13:23:09.034Z,12.98
2023-01-15T13:25:38.914Z,13.06
2023-01-15T13:28:13.858Z,12.40
2023-01-15T13:30:59.530Z,12.41
2023-01-15T13:33:36.799Z,12.10
2023-01-15T13:36:07.186Z,12.16
2023-01-15T13:38:37.742Z,12.28
2023-01-15T13:41:09.993Z,11.97
2023-01-15T13:43:37.027Z,12.02
2023-01-15T13:46:05.755Z,12.13
2023-01-15T13:48:46.549Z,11.53
2023-01-15T13:51:22.434Z,11.38
2023-01-15T13:53:50.578Z,11.52
2023-01-15T13:56:31.477Z,11.69
2023-01-15T13:58:58.357Z,11.65
2023-01-15T14:01:30.627Z,11.78
2023-01-15T14:04:00.531Z,11.77
2023-01-15T14:06:36.757Z,12.25
2023-01-15T14:09:05.647Z,12.14
2023-01-15T14:11:37.483Z,12.14
2023-01-15T14:14:27.858Z,12.15
2023-01-15T14:17:10.419Z,12.05
2023-01-15T14:19:43.299Z,12.39
2023-01-15T14:22:28.698Z,12.45
2023-01-15T14:25:13.913Z,12.11
2023-01-15T14:27:40.629Z,11.93
2023-01-15T14:30:07.400Z,12.16
2023-01-15T14:32:37.119Z,11.99
2023-01-15T14:35:06.403Z,12.31
2023-01-15T14:37:39.771Z,11.86
2023-01-15T14:40:07.560Z,11.94
2023-01-15T14:42:59.771Z,12.02
2023-01-15T14:45:43.450Z,12.37
2023-01-15T14:48:36.918Z,12.09
2023-01-15T14:51:14.739Z,11.96
2023-01-15T14:53:45.151Z,11.77
2023-01-15T14:56:23.526Z,11.16
2023-01-15T14:58:56.312Z,11.33
2023-01-15T15:01:42.026Z,11.49
2023-01-15T15:04:11.547Z,10.94
2023-01-15T15:06:47.710Z,10.42
2023-01-15T15:09:15.075Z,10.73
2023-01-15T15:12:07.826Z,10.20
2023-01-15T15:14:37.264Z,9.96
2023-01-15T15:17:06.288Z,10.00
2023-01-15T15:19:39.086Z,9.90
2023-01-15T15:22:07.035Z,10.35
2023-01-15T15:24:35.532Z,10.30
2023-01-15T15:27:20.785Z,10.19
2023-01-15T15:29:47.770Z,10.13
2023-01-15T15:32:22.834Z,9.69
2023-01-15T15:34:53.674Z,9.83
2023-01-15T15:37:21.831Z,9.84
2023-01-15T15:40:30.576Z,9.65
2023-01-15T15:43:33.615Z,9.66
2023-01-15T15:46:39.263Z,10.08
2023-01-15T15:49:26.264Z,9.91
2023-01-15T15:51:54.385Z,9.86
2023-01-15T15:54:22.288Z,9.95
2023-01-15T15:56:59.555Z,9.53
2023-01-15T15:59:30.930Z,9.88
2023-01-15T16:01:59.271Z,10.20
2023-01-15T16:04:27.089Z,10.17
2023-01-15T16:06:53.822Z,10.18
2023-01-15T16:09:21.922Z,9.86
2023-01-15T16:11:49.970Z,9.71
2023-01-15T16:14:17.402Z,9.86
2023-01-15T16:16:44.645Z,9.85
2023-01-15T16:19:15.805Z,9.95
2023-01-15T16:21:42.761Z,9.93
2023-01-15T16:24:21.571Z,10.20
2023-01-15T16:26:52.832Z,10.20
2023-01-15T16:29:21.760Z,10.47
2023-01-15T16:31:48.875Z,10.50
2023-01-15T16:34:23.762Z,10.56
2023-01-15T16:36:50.790Z,10.01
2023-01-15T16:39:23.636Z,9.66
2023-01-15T16:41:51.390Z,10.15
2023-01-15T16:44:35.380Z,10.00
2023-01-15T16:47:02.569Z,9.93
2023-01-15T16:49:33.319Z,10.00
2023-01-15T16:52:01.188Z,10.02
2023-01-15T16:54:30.795Z,10.60
2023-01-15T16:56:57.656Z,10.44
2023-01-15T16:59:27.530Z,10.61
2023-01-15T17:01:57.180Z,10.49
2023-01-15T17:04:32.423Z,10.38
2023-01-15T17:07:03.685Z,10.60
2023-01-15T17:09:32.234Z,10.46
2023-01-15T17:11:59.991Z,10.45
2023-01-15T17:14:27.828Z,10.95
2023-01-15T17:17:15.488Z,11.09
2023-01-15T17:19:42.250Z,10.54
2023-01-15T17:22:15.153Z,11.03
2023-01-15T17:24:51.978Z,10.29
2023-01-15T17:27:18.984Z,11.05
2023-01-15T17:29:45.750Z,10.85
2023-01-15T17:32:15.066Z,10.25
2023-01-15T17:34:41.919Z,10.10
2023-01-15T17:37:08.711Z,9.64
2023-01-15T17:39:35.485Z,10.55
2023-01-15T17:42:02.229Z,9.76
2023-01-15T17:44:28.981Z,10.50
2023-01-15T17:46:55.770Z,10.59
2023-01-15T17:49:22.466Z,9.97
2023-01-15T17:51:49.496Z,9.43
2023-01-15T17:54:36.109Z,10.49
2023-01-15T17:57:21.361Z,10.68
2023-01-15T18:00:06.487Z,10.97
2023-01-15T18:02:51.646Z,11.07
2023-01-15T18:05:27.227Z,10.91
2023-01-15T18:07:56.878Z,10.78
2023-01-15T18:10:24.071Z,9.98
2023-01-15T18:12:51.904Z,10.28
2023-01-15T18:15:19.820Z,10.58
2023-01-15T18:17:46.848Z,10.04
2023-01-15T18:20:14.135Z,10.62
2023-01-15T18:22:41.115Z,10.90
2023-01-15T18:25:10.819Z,10.96
2023-01-15T18:27:42.934Z,10.50
2023-01-15T18:30:14.437Z,10.71
2023-01-15T18:33:02.860Z,9.52
2023-01-15T18:35:29.744Z,9.28
2023-01-15T18:37:57.112Z,9.52
2023-01-15T18:40:35.971Z,9.58
2023-01-15T18:43:22.513Z,10.02
2023-01-15T18:46:07.790Z,10.26
2023-01-15T18:48:34.544Z,10.30
2023-01-15T18:51:10.963Z,10.59
2023-01-15T18:53:37.683Z,10.76
2023-01-15T18:56:05.470Z,9.63
2023-01-15T18:58:32.423Z,10.36
2023-01-15T19:01:06.092Z,10.21
2023-01-15T19:03:33.546Z,10.37
2023-01-15T19:06:07.262Z,10.61
2023-01-15T19:08:33.995Z,10.86
2023-01-15T19:11:00.765Z,10.98
2023-01-15T19:13:27.587Z,10.91
2023-01-15T19:16:12.952Z,10.99
2023-01-15T19:18:42.348Z,10.27
2023-01-15T19:21:09.155Z,10.77
2023-01-15T19:23:35.846Z,10.67
2023-01-15T19:26:03.199Z,10.85
2023-01-15T19:28:30.159Z,10.94
2023-01-15T19:31:15.477Z,10.91
2023-01-15T19:33:42.208Z,10.93
2023-01-15T19:36:09.198Z,11.06
2023-01-15T19:38:38.779Z,11.04
2023-01-15T19:41:30.664Z,11.16
2023-01-15T19:44:16.021Z,11.11
2023-01-15T19:47:01.692Z,11.05
2023-01-15T19:49:49.817Z,10.78
2023-01-15T19:52:34.729Z,10.83
2023-01-15T19:55:06.082Z,10.97
2023-01-15T19:57:32.788Z,10.99
2023-01-15T19:59:59.557Z,10.84
2023-01-15T20:02:26.733Z,10.70
2023-01-15T20:04:53.735Z,10.69
2023-01-15T20:07:20.578Z,10.89
2023-01-15T20:09:47.247Z,10.93
2023-01-15T20:12:32.539Z,10.82
2023-01-15T20:14:59.496Z,10.73
2023-01-15T20:17:27.993Z,10.73
2023-01-15T20:19:54.758Z,10.76
2023-01-15T20:22:21.574Z,10.77
2023-01-15T20:24:48.528Z,10.70
2023-01-15T20:27:15.242Z,10.78
2023-01-15T20:29:42.865Z,10.74
2023-01-15T20:32:10.423Z,10.58
2023-01-15T20:34:39.449Z,9.79
2023-01-15T20:37:07.032Z,9.24
2023-01-15T20:39:34.662Z,8.91
2023-01-15T20:42:20.068Z,8.57
2023-01-15T20:44:55.554Z,8.05
2023-01-15T20:47:45.344Z,8.81
2023-01-15T20:50:15.673Z,9.28
2023-01-15T20:52:47.017Z,9.17
2023-01-15T20:55:13.909Z,9.56
2023-01-15T20:57:41.942Z,9.68
2023-01-15T21:00:10.611Z,9.65
2023-01-15T21:02:37.835Z,9.68
2023-01-15T21:05:05.653Z,9.26
2023-01-15T21:07:33.200Z,9.21
2023-01-15T21:09:59.864Z,9.40
2023-01-15T21:12:26.675Z,9.63
2023-01-15T21:14:53.372Z,9.73
2023-01-15T21:17:20.115Z,9.69
2023-01-15T21:19:46.775Z,9.80
2023-01-15T21:22:14.874Z,9.95
2023-01-15T21:24:41.693Z,9.99
2023-01-15T21:27:08.393Z,10.06
2023-01-15T21:29:35.083Z,9.91
2023-01-15T21:32:01.773Z,10.06
2023-01-15T21:34:31.363Z,10.28
2023-01-15T21:36:58.047Z,9.85
2023-01-15T21:39:24.955Z,10.04
2023-01-15T21:42:11.347Z,10.04
2023-01-15T21:44:43.510Z,9.93
2023-01-15T21:47:14.569Z,10.03
2023-01-15T21:49:42.354Z,10.04
2023-01-15T21:52:10.758Z,10.15
2023-01-15T21:54:37.578Z,10.04
2023-01-15T21:57:04.325Z,10.02
2023-01-15T21:59:31.016Z,10.07
2023-01-15T22:01:58.731Z,8.96
2023-01-15T22:04:27.009Z,9.71
2023-01-15T22:06:54.480Z,9.77
2023-01-15T22:09:21.451Z,9.80
2023-01-15T22:11:49.307Z,9.52
2023-01-15T22:14:22.810Z,9.72
2023-01-15T22:16:51.537Z,9.88
2023-01-15T22:19:20.853Z,9.72
2023-01-15T22:21:55.826Z,9.69
2023-01-15T22:24:25.197Z,9.71
2023-01-15T22:26:54.790Z,9.54
2023-01-15T22:29:26.204Z,9.46
2023-01-15T22:31:53.283Z,9.57
2023-01-15T22:34:23.737Z,9.64
2023-01-15T22:36:50.765Z,9.72
2023-01-15T22:39:17.890Z,9.00
2023-01-15T22:42:04.203Z,9.59
2023-01-15T22:44:31.255Z,9.61
2023-01-15T22:46:58.007Z,9.51
2023-01-15T22:49:24.763Z,9.47
2023-01-15T22:51:52.266Z,9.57
2023-01-15T22:54:19.902Z,8.40
2023-01-15T22:56:47.006Z,8.55
2023-01-15T22:59:19.506Z,8.47
2023-01-15T23:02:06.607Z,8.13
2023-01-15T23:04:53.115Z,8.12
2023-01-15T23:07:19.969Z,8.92
2023-01-15T23:09:47.114Z,9.04
2023-01-15T23:12:14.358Z,8.71
2023-01-15T23:14:41.146Z,8.19
2023-01-15T23:17:08.956Z,8.61
2023-01-15T23:19:40.327Z,8.24
2023-01-15T23:22:07.463Z,8.82
2023-01-15T23:24:34.216Z,8.99
2023-01-15T23:27:00.924Z,9.13
2023-01-15T23:29:27.645Z,9.16
2023-01-15T23:31:54.454Z,9.26
2023-01-15T23:34:21.175Z,9.36
2023-01-15T23:36:47.967Z,8.28
2023-01-15T23:39:14.617Z,8.91
2023-01-15T23:42:00.023Z,9.24
2023-01-15T23:44:45.117Z,9.50
2023-01-15T23:47:11.972Z,9.38
2023-01-15T23:49:39.359Z,9.06
2023-01-15T23:52:06.239Z,9.23
2023-01-15T23:54:34.160Z,9.38
2023-01-15T23:57:01.817Z,9.45
2023-01-15T23:59:37.865Z,9.43
